Time;durP1;ratioP1;P1;durP2;ratioP2;P2;SDS_P1;SDS_P2;PMS_P1;PMS_P2;Temp;Humidity;BMP_temperature;BMP_pressure;BME280_temperature;BME280_humidity;BME280_pressure;Samples;Min_cycle;Max_cycle;Signal;HPM_P1;HPM_P2
2021/07/28 00:02:08;;;;;;;4.78;2.42;;;22.70;62.60;;;;;;4861028;29;20095;-59
2021/07/28 00:04:34;;;;;;;4.22;2.38;;;22.70;62.50;;;;;;4860607;29;20049;-59
2021/07/28 00:07:00;;;;;;;4.38;2.50;;;22.70;62.50;;;;;;4860703;29;20450;-59
2021/07/28 00:09:26;;;;;;;4.88;2.63;;;22.70;62.60;;;;;;4860619;29;20096;-60
2021/07/28 00:11:51;;;;;;;4.40;2.45;;;22.60;62.60;;;;;;4860679;29;20112;-59
2021/07/28 00:14:17;;;;;;;6.75;2.65;;;22.70;62.60;;;;;;4860619;29;20109;-59
2021/07/28 00:16:43;;;;;;;5.65;2.70;;;22.70;62.60;;;;;;4860475;29;20133;-60
2021/07/28 00:19:20;;;;;;;4.30;2.50;;;22.70;62.60;;;;;;4860528;29;20038;-59
2021/07/28 00:24:33;;;;;;;4.65;2.17;;;22.60;62.70;;;;;;4864601;29;20043;-58
2021/07/28 00:26:59;;;;;;;4.90;2.60;;;22.60;62.70;;;;;;4864301;29;20037;-58
2021/07/28 00:29:28;;;;;;;4.68;2.58;;;22.60;62.60;;;;;;4864223;29;20036;-58
2021/07/28 00:31:54;;;;;;;5.57;2.40;;;22.60;62.60;;;;;;4864520;29;20431;-59
2021/07/28 00:34:20;;;;;;;4.63;2.28;;;22.60;62.70;;;;;;4863994;29;20021;-59
2021/07/28 00:36:45;;;;;;;3.80;2.28;;;22.60;62.70;;;;;;4864103;29;20075;-58
2021/07/28 00:39:11;;;;;;;4.55;2.42;;;22.60;62.70;;;;;;4864024;29;20037;-59
2021/07/28 00:41:41;;;;;;;4.32;2.00;;;22.70;62.60;;;;;;4863990;29;20034;-59
2021/07/28 00:44:06;;;;;;;4.43;2.15;;;22.60;62.60;;;;;;4863950;29;20109;-59
2021/07/28 00:46:32;;;;;;;4.68;2.20;;;22.60;62.70;;;;;;4866167;29;20093;-59
2021/07/28 00:48:58;;;;;;;4.60;2.40;;;22.60;62.60;;;;;;4869399;29;20363;-59
2021/07/28 00:51:23;;;;;;;4.97;2.42;;;22.60;62.60;;;;;;4863916;29;20033;-59
2021/07/28 00:53:49;;;;;;;5.75;2.45;;;22.60;62.70;;;;;;4864021;29;20029;-59
2021/07/28 00:56:17;;;;;;;4.38;2.03;;;22.60;62.70;;;;;;4863958;29;20458;-59
2021/07/28 00:58:43;;;;;;;4.32;2.35;;;22.60;62.70;;;;;;4863620;29;20029;-58
2021/07/28 01:01:08;;;;;;;5.70;2.70;;;22.60;62.70;;;;;;4863816;29;20029;-59
2021/07/28 01:03:35;;;;;;;4.47;2.40;;;22.60;62.70;;;;;;4863405;29;20409;-59
2021/07/28 01:06:00;;;;;;;4.70;2.40;;;22.60;62.70;;;;;;4863573;29;20029;-59
2021/07/28 01:08:26;;;;;;;4.72;2.42;;;22.50;62.70;;;;;;4863434;29;20048;-59
2021/07/28 01:10:53;;;;;;;3.83;2.33;;;22.60;62.70;;;;;;4863541;29;20041;-59
2021/07/28 01:13:26;;;;;;;4.57;2.55;;;22.50;62.80;;;;;;4863618;29;20033;-59
2021/07/28 01:15:58;;;;;;;3.80;2.08;;;22.50;62.70;;;;;;4863352;29;20500;-60
2021/07/28 01:18:24;;;;;;;5.22;2.35;;;22.50;62.70;;;;;;4863611;29;20041;-59
2021/07/28 01:20:49;;;;;;;4.53;2.60;;;22.60;62.70;;;;;;4863271;29;20021;-60
2021/07/28 01:23:28;;;;;;;6.10;2.58;;;22.50;62.60;;;;;;4863476;29;20021;-59
2021/07/28 01:25:55;;;;;;;4.40;2.00;;;22.60;62.60;;;;;;4863311;29;20029;-58
2021/07/28 01:28:24;;;;;;;4.40;2.17;;;22.60;62.70;;;;;;4863197;29;20030;-59
2021/07/28 01:31:04;;;;;;;4.38;2.40;;;22.60;62.70;;;;;;4863209;29;20105;-59
2021/07/28 01:33:34;;;;;;;4.63;2.38;;;22.50;62.70;;;;;;4863321;29;20047;-59
2021/07/28 01:36:01;;;;;;;4.85;2.53;;;22.50;62.70;;;;;;4863680;29;20033;-59
2021/07/28 01:38:28;;;;;;;4.63;2.30;;;22.50;62.80;;;;;;4863176;29;20102;-60
2021/07/28 01:40:59;;;;;;;4.65;2.53;;;22.50;62.80;;;;;;4863002;29;20034;-60
2021/07/28 01:43:27;;;;;;;3.72;2.13;;;22.50;62.80;;;;;;4863184;29;20029;-59
2021/07/28 01:45:53;;;;;;;6.97;2.53;;;22.50;62.80;;;;;;4866800;29;20029;-59
2021/07/28 01:48:18;;;;;;;4.55;2.22;;;22.50;62.80;;;;;;4864381;29;20105;-59
2021/07/28 01:50:45;;;;;;;5.07;2.60;;;22.50;62.80;;;;;;4863039;29;20097;-60
2021/07/28 01:53:12;;;;;;;3.53;2.15;;;22.50;62.80;;;;;;4862781;29;20029;-59
2021/07/28 01:55:37;;;;;;;5.20;2.50;;;22.50;62.70;;;;;;4862657;29;20029;-59
2021/07/28 01:58:03;;;;;;;5.38;2.53;;;22.50;62.80;;;;;;4862741;29;20496;-59
2021/07/28 02:00:28;;;;;;;4.18;2.30;;;22.50;62.80;;;;;;4862709;29;20025;-58
2021/07/28 02:02:55;;;;;;;4.18;2.40;;;22.50;62.80;;;;;;4862569;29;20053;-59
2021/07/28 02:05:21;;;;;;;3.92;2.20;;;22.50;62.80;;;;;;4862720;29;20030;-59
2021/07/28 02:07:47;;;;;;;4.22;2.28;;;22.50;62.70;;;;;;4862530;29;20565;-59
2021/07/28 02:10:12;;;;;;;4.88;2.20;;;22.50;62.80;;;;;;4862494;29;20498;-59
2021/07/28 02:12:38;;;;;;;4.20;2.15;;;22.50;62.70;;;;;;4862513;29;20321;-59
2021/07/28 02:15:04;;;;;;;4.28;2.58;;;22.50;62.80;;;;;;4862595;29;20470;-59
2021/07/28 02:17:30;;;;;;;4.22;2.00;;;22.50;62.70;;;;;;4862297;29;20117;-60
2021/07/28 02:19:55;;;;;;;4.88;2.20;;;22.50;62.80;;;;;;4862330;29;20478;-60
2021/07/28 02:22:20;;;;;;;4.32;2.10;;;22.50;62.80;;;;;;4862341;29;20030;-60
2021/07/28 02:24:46;;;;;;;5.20;2.35;;;22.50;62.70;;;;;;4862341;29;20041;-60
2021/07/28 02:27:11;;;;;;;5.03;2.67;;;22.50;62.80;;;;;;4862297;29;20104;-59
2021/07/28 02:29:37;;;;;;;4.38;2.13;;;22.50;62.80;;;;;;4863976;29;20060;-59
2021/07/28 02:32:03;;;;;;;6.00;2.55;;;22.50;62.80;;;;;;4864365;29;20029;-58
2021/07/28 02:34:31;;;;;;;3.53;2.00;;;22.50;62.80;;;;;;4865059;29;20029;-59
2021/07/28 02:36:57;;;;;;;4.38;2.28;;;22.50;62.80;;;;;;4863640;29;20037;-59
2021/07/28 02:39:22;;;;;;;3.90;2.22;;;22.50;62.80;;;;;;4865054;29;20470;-59
2021/07/28 02:41:48;;;;;;;4.00;2.10;;;22.50;62.90;;;;;;4867901;29;20104;-59
2021/07/28 02:44:13;;;;;;;3.50;1.98;;;22.50;62.80;;;;;;4865680;29;20109;-60
2021/07/28 02:46:39;;;;;;;5.05;2.47;;;22.50;62.80;;;;;;4867835;29;20057;-60
2021/07/28 02:49:04;;;;;;;4.60;2.28;;;22.50;62.80;;;;;;4867718;29;20053;-60
2021/07/28 02:51:30;;;;;;;4.63;2.40;;;22.50;62.90;;;;;;4868184;29;20021;-60
2021/07/28 02:53:56;;;;;;;4.45;2.20;;;22.50;62.90;;;;;;4869096;29;20033;-60
2021/07/28 02:56:21;;;;;;;4.35;2.30;;;22.50;62.90;;;;;;4869916;29;20042;-60
2021/07/28 02:58:46;;;;;;;4.40;2.35;;;22.50;62.90;;;;;;4866946;29;20030;-59
2021/07/28 03:01:12;;;;;;;4.97;2.30;;;22.50;62.90;;;;;;4862038;29;20472;-59
2021/07/28 03:03:37;;;;;;;4.63;2.30;;;22.40;62.90;;;;;;4861503;29;20061;-59
2021/07/28 03:06:03;;;;;;;4.63;2.67;;;22.40;62.90;;;;;;4861876;29;20029;-60
2021/07/28 03:08:28;;;;;;;3.85;2.10;;;22.40;62.90;;;;;;4861706;29;20391;-59
2021/07/28 03:10:55;;;;;;;4.72;2.65;;;22.40;62.90;;;;;;4861642;29;20056;-59
2021/07/28 03:13:20;;;;;;;5.68;2.33;;;22.40;62.90;;;;;;4861556;29;20104;-60
2021/07/28 03:15:46;;;;;;;4.00;2.15;;;22.40;62.90;;;;;;4861621;29;20033;-59
2021/07/28 03:18:12;;;;;;;5.15;2.40;;;22.50;62.90;;;;;;4861337;29;20550;-59
2021/07/28 03:20:37;;;;;;;4.45;2.28;;;22.50;62.90;;;;;;4861305;29;20116;-59
2021/07/28 03:23:03;;;;;;;5.55;2.83;;;22.40;62.90;;;;;;4861179;29;20121;-59
2021/07/28 03:25:28;;;;;;;3.78;2.22;;;22.40;62.90;;;;;;4861221;29;20243;-59
2021/07/28 03:27:54;;;;;;;5.18;2.40;;;22.40;62.90;;;;;;4861071;29;20033;-59
2021/07/28 03:30:19;;;;;;;6.55;2.15;;;22.40;63.00;;;;;;4861152;29;20467;-59
2021/07/28 03:32:45;;;;;;;4.53;2.30;;;22.40;63.00;;;;;;4861009;29;20025;-59
2021/07/28 03:35:11;;;;;;;4.93;2.40;;;22.40;62.90;;;;;;4860975;29;20029;-59
2021/07/28 03:37:36;;;;;;;5.03;2.50;;;22.40;62.90;;;;;;4861157;29;20041;-60
2021/07/28 03:40:02;;;;;;;4.93;2.63;;;22.40;62.90;;;;;;4863699;29;20026;-60
2021/07/28 03:42:30;;;;;;;4.65;2.63;;;22.40;62.90;;;;;;4869712;29;20033;-59
2021/07/28 03:44:57;;;;;;;4.97;2.53;;;22.40;62.90;;;;;;4861397;29;20053;-59
2021/07/28 03:47:22;;;;;;;4.85;2.70;;;22.50;62.80;;;;;;4861108;29;20029;-59
2021/07/28 03:49:48;;;;;;;4.40;2.45;;;22.40;62.90;;;;;;4860856;29;20113;-59
2021/07/28 03:52:13;;;;;;;4.50;2.55;;;22.40;62.90;;;;;;4860993;29;20034;-59
2021/07/28 03:54:38;;;;;;;4.70;2.50;;;22.40;62.90;;;;;;4860531;29;20030;-60
2021/07/28 03:57:04;;;;;;;5.28;2.13;;;22.40;62.90;;;;;;4860562;29;20044;-59
2021/07/28 03:59:30;;;;;;;4.00;2.22;;;22.40;62.90;;;;;;4861035;29;20117;-60
2021/07/28 04:01:55;;;;;;;5.20;2.58;;;22.40;62.90;;;;;;4860783;29;20026;-59
2021/07/28 04:04:20;;;;;;;3.90;2.20;;;22.40;62.90;;;;;;4860588;29;20540;-59
2021/07/28 04:06:46;;;;;;;4.22;2.22;;;22.40;62.90;;;;;;4860694;29;20029;-59
2021/07/28 04:09:11;;;;;;;4.13;2.13;;;22.40;63.00;;;;;;4860788;29;20018;-59
2021/07/28 04:11:37;;;;;;;4.15;2.10;;;22.40;62.90;;;;;;4860809;29;20592;-59
2021/07/28 04:14:02;;;;;;;3.95;2.03;;;22.40;63.00;;;;;;4860877;29;20049;-59
2021/07/28 04:16:28;;;;;;;4.80;2.58;;;22.40;63.00;;;;;;4860555;29;20058;-59
2021/07/28 04:18:53;;;;;;;5.13;2.10;;;22.30;63.10;;;;;;4860577;29;20166;-59
2021/07/28 04:21:19;;;;;;;4.43;2.50;;;22.30;63.10;;;;;;4860529;29;20034;-60
2021/07/28 04:23:44;;;;;;;4.85;2.58;;;22.40;63.00;;;;;;4860427;29;20378;-59
2021/07/28 04:26:10;;;;;;;4.07;2.22;;;22.30;63.00;;;;;;4860584;29;20030;-59
2021/07/28 04:28:35;;;;;;;4.65;2.58;;;22.40;63.00;;;;;;4860561;29;20344;-59
2021/07/28 04:31:01;;;;;;;5.50;2.92;;;22.40;63.00;;;;;;4860465;29;20102;-59
2021/07/28 04:33:26;;;;;;;7.70;2.70;;;22.30;63.00;;;;;;4860495;29;20036;-59
2021/07/28 04:35:52;;;;;;;5.57;2.47;;;22.30;63.00;;;;;;4860580;29;20037;-59
2021/07/28 04:38:17;;;;;;;4.38;2.40;;;22.30;63.00;;;;;;4860373;29;20040;-59
2021/07/28 04:40:43;;;;;;;4.95;2.63;;;22.40;63.00;;;;;;4860591;29;20035;-59
2021/07/28 04:43:08;;;;;;;4.78;2.63;;;22.30;63.00;;;;;;4860438;29;20109;-59
2021/07/28 04:45:34;;;;;;;4.60;2.42;;;22.40;62.90;;;;;;4860289;29;20069;-59
2021/07/28 04:47:59;;;;;;;4.65;2.33;;;22.40;62.90;;;;;;4860414;29;20025;-59
2021/07/28 04:50:25;;;;;;;6.22;2.40;;;22.40;62.90;;;;;;4860360;29;20041;-59
2021/07/28 04:52:50;;;;;;;5.30;2.85;;;22.40;62.90;;;;;;4860201;29;20117;-59
2021/07/28 04:55:16;;;;;;;6.03;2.55;;;22.40;62.90;;;;;;4860281;29;20029;-59
2021/07/28 04:57:41;;;;;;;4.20;2.30;;;22.40;62.80;;;;;;4860231;29;20494;-59
2021/07/28 05:00:07;;;;;;;4.22;2.28;;;22.40;62.80;;;;;;4860238;29;20447;-59
2021/07/28 05:02:33;;;;;;;4.30;2.17;;;22.40;62.80;;;;;;4859981;29;20053;-62
2021/07/28 05:04:58;;;;;;;4.90;2.45;;;22.40;62.80;;;;;;4860187;29;20041;-59
2021/07/28 05:07:24;;;;;;;4.82;2.63;;;22.40;62.80;;;;;;4862036;29;20453;-59
2021/07/28 05:09:49;;;;;;;4.53;2.53;;;22.40;62.80;;;;;;4863594;29;20034;-60
2021/07/28 05:12:15;;;;;;;5.15;2.50;;;22.40;62.70;;;;;;4863576;29;20114;-59
2021/07/28 05:14:40;;;;;;;5.72;2.65;;;22.40;62.70;;;;;;4863552;29;20090;-59
2021/07/28 05:17:06;;;;;;;5.20;2.58;;;22.40;62.70;;;;;;4863352;29;20479;-60
2021/07/28 05:19:31;;;;;;;4.53;2.55;;;22.40;62.80;;;;;;4863217;29;20033;-59
2021/07/28 05:21:57;;;;;;;4.05;2.20;;;22.40;62.70;;;;;;4863369;29;20037;-59
2021/07/28 05:24:22;;;;;;;4.43;2.25;;;22.40;62.70;;;;;;4863646;29;20029;-60
2021/07/28 05:26:48;;;;;;;5.10;2.40;;;22.40;62.70;;;;;;4866379;29;20025;-59
2021/07/28 05:29:14;;;;;;;5.10;2.22;;;22.40;62.60;;;;;;4870671;29;20082;-59
2021/07/28 05:31:39;;;;;;;5.30;2.67;;;22.40;62.70;;;;;;4870819;29;20033;-60
2021/07/28 05:34:05;;;;;;;4.88;2.50;;;22.40;62.60;;;;;;4863454;29;20026;-59
2021/07/28 05:36:30;;;;;;;4.53;2.40;;;22.40;62.60;;;;;;4863049;29;20065;-59
2021/07/28 05:38:56;;;;;;;4.28;2.33;;;22.40;62.70;;;;;;4863177;29;20040;-59
2021/07/28 05:41:21;;;;;;;6.38;2.55;;;22.40;62.60;;;;;;4863269;29;20029;-60
2021/07/28 05:43:47;;;;;;;4.93;2.25;;;22.40;62.60;;;;;;4863094;29;20513;-59
2021/07/28 05:46:12;;;;;;;4.18;2.25;;;22.40;62.70;;;;;;4862895;29;20112;-59
2021/07/28 05:48:37;;;;;;;4.70;2.38;;;22.40;62.70;;;;;;4863071;29;20032;-59
2021/07/28 05:51:03;;;;;;;4.95;2.67;;;22.40;62.60;;;;;;4863510;29;20044;-59
2021/07/28 05:53:29;;;;;;;4.35;2.50;;;22.40;62.60;;;;;;4867182;29;20030;-59
2021/07/28 05:55:55;;;;;;;4.60;2.67;;;22.50;62.50;;;;;;4863058;29;20426;-59
2021/07/28 05:58:21;;;;;;;4.00;1.98;;;22.50;62.40;;;;;;4862750;29;20478;-59
2021/07/28 06:00:48;;;;;;;4.95;2.45;;;22.50;62.40;;;;;;4862939;29;20037;-60
2021/07/28 06:03:13;;;;;;;3.75;2.15;;;22.50;62.40;;;;;;4862633;29;20446;-59
2021/07/28 06:05:39;;;;;;;5.20;2.42;;;22.50;62.40;;;;;;4862537;29;20034;-59
2021/07/28 06:08:05;;;;;;;5.65;2.45;;;22.50;62.30;;;;;;4862619;29;20108;-59
2021/07/28 06:10:30;;;;;;;4.25;2.33;;;22.50;62.20;;;;;;4862459;29;20041;-59
2021/07/28 06:12:56;;;;;;;4.03;2.13;;;22.50;62.30;;;;;;4862378;29;20037;-59
2021/07/28 06:15:21;;;;;;;4.13;2.40;;;22.50;62.20;;;;;;4862423;29;20034;-59
2021/07/28 06:17:47;;;;;;;4.40;2.30;;;22.50;62.10;;;;;;4861682;29;20455;-59
2021/07/28 06:20:14;;;;;;;4.32;2.78;;;22.50;62.10;;;;;;4861840;29;20056;-59
2021/07/28 06:22:40;;;;;;;4.95;2.67;;;22.50;62.10;;;;;;4862445;29;20135;-59
2021/07/28 06:25:08;;;;;;;4.70;2.42;;;22.60;62.10;;;;;;4862067;29;20026;-59
2021/07/28 06:27:33;;;;;;;4.05;2.25;;;22.60;62.10;;;;;;4862328;29;20040;-60
2021/07/28 06:29:59;;;;;;;4.07;2.33;;;22.50;62.10;;;;;;4862040;29;20034;-59
2021/07/28 06:32:25;;;;;;;3.67;2.28;;;22.50;62.00;;;;;;4862100;29;20025;-60
2021/07/28 06:34:50;;;;;;;3.33;2.10;;;22.60;62.10;;;;;;4862037;29;20033;-59
2021/07/28 06:37:16;;;;;;;3.72;2.00;;;22.50;62.10;;;;;;4862102;29;20470;-59
2021/07/28 06:39:41;;;;;;;4.18;2.35;;;22.60;62.00;;;;;;4874845;29;20451;-60
2021/07/28 06:42:07;;;;;;;4.28;2.50;;;22.50;62.00;;;;;;4880378;29;20037;-59
2021/07/28 06:44:32;;;;;;;4.40;2.42;;;22.50;62.30;;;;;;4879750;29;20037;-59
2021/07/28 06:46:58;;;;;;;4.32;2.35;;;22.50;62.30;;;;;;4880118;29;20101;-59
2021/07/28 06:49:23;;;;;;;6.18;3.58;;;22.50;62.30;;;;;;4865490;29;20042;-59
2021/07/28 06:51:49;;;;;;;7.60;3.40;;;22.50;62.80;;;;;;4872773;29;20060;-59
2021/07/28 06:54:15;;;;;;;7.50;3.65;;;22.50;63.20;;;;;;4869973;29;20037;-60
2021/07/28 06:56:40;;;;;;;8.65;3.75;;;22.40;63.60;;;;;;4878061;29;20132;-59
2021/07/28 06:59:06;;;;;;;7.00;3.78;;;22.30;63.90;;;;;;4879789;29;20029;-59
2021/07/28 07:01:31;;;;;;;7.03;3.53;;;22.40;63.70;;;;;;4879675;29;20072;-59
2021/07/28 07:03:56;;;;;;;6.85;3.65;;;22.40;63.90;;;;;;4871313;29;20124;-60
2021/07/28 07:06:22;;;;;;;5.90;3.60;;;22.40;63.80;;;;;;4879184;29;20029;-60
2021/07/28 07:08:48;;;;;;;8.93;3.83;;;22.40;64.10;;;;;;4879461;29;20093;-60
2021/07/28 07:11:13;;;;;;;6.72;3.67;;;22.30;64.20;;;;;;4879649;29;20033;-59
2021/07/28 07:13:39;;;;;;;6.80;3.70;;;22.20;64.40;;;;;;4872849;29;20465;-59
2021/07/28 07:16:04;;;;;;;7.28;3.55;;;22.30;64.10;;;;;;4878232;29;20049;-59
2021/07/28 07:18:30;;;;;;;7.00;3.78;;;22.40;64.00;;;;;;4879245;29;20057;-59
2021/07/28 07:20:55;;;;;;;8.45;3.90;;;22.40;63.90;;;;;;4878858;29;20036;-60
2021/07/28 07:23:21;;;;;;;10.38;4.35;;;22.50;63.70;;;;;;4873432;29;20024;-60
2021/07/28 07:25:46;;;;;;;9.68;4.32;;;22.50;63.80;;;;;;4877146;29;20033;-60
2021/07/28 07:28:12;;;;;;;11.05;3.92;;;22.40;64.10;;;;;;4879236;29;20040;-60
2021/07/28 07:30:38;;;;;;;8.90;4.47;;;22.40;64.60;;;;;;4878789;29;20397;-59
2021/07/28 07:35:49;;;;;;;9.52;4.38;;;22.30;65.30;;;;;;4876792;29;20135;-58
2021/07/28 07:38:14;;;;;;;10.55;4.43;;;22.40;65.20;;;;;;4878784;29;20033;-60
2021/07/28 07:40:40;;;;;;;8.93;3.92;;;22.30;65.80;;;;;;4878660;29;20040;-60
2021/07/28 07:43:06;;;;;;;8.98;4.38;;;22.40;65.70;;;;;;4875197;29;20032;-61
2021/07/28 07:45:33;;;;;;;8.77;4.18;;;22.40;65.90;;;;;;4874182;29;20390;-60
2021/07/28 07:47:59;;;;;;;7.63;4.43;;;22.30;66.40;;;;;;4878761;29;20108;-59
2021/07/28 07:50:24;;;;;;;12.23;6.03;;;22.10;66.60;;;;;;4877957;29;20070;-58
2021/07/28 07:52:50;;;;;;;8.85;4.90;;;22.20;66.60;;;;;;4875925;29;20025;-60
2021/07/28 07:55:16;;;;;;;8.90;4.20;;;22.10;67.40;;;;;;4873812;29;20462;-59
2021/07/28 07:57:41;;;;;;;13.63;4.72;;;22.10;67.40;;;;;;4878458;29;20041;-59
2021/07/28 08:00:07;;;;;;;9.57;4.18;;;22.10;67.60;;;;;;4878658;29;20025;-58
2021/07/28 08:02:33;;;;;;;8.70;4.20;;;22.00;67.90;;;;;;4877525;29;20538;-58
2021/07/28 08:04:59;;;;;;;7.78;4.25;;;22.10;67.90;;;;;;4871520;29;20041;-59
2021/07/28 08:07:24;;;;;;;8.35;4.50;;;22.10;67.80;;;;;;4878712;29;20029;-59
2021/07/28 08:09:50;;;;;;;10.05;4.05;;;22.00;68.60;;;;;;4878522;29;20434;-58
2021/07/28 08:12:15;;;;;;;7.60;4.38;;;22.10;67.70;;;;;;4878322;29;20041;-59
2021/07/28 08:14:41;;;;;;;7.80;4.88;;;22.10;67.80;;;;;;4870837;29;20021;-59
2021/07/28 08:17:06;;;;;;;9.95;4.70;;;22.10;68.00;;;;;;4877452;29;20045;-59
2021/07/28 08:19:32;;;;;;;8.38;4.47;;;22.20;68.20;;;;;;4878306;29;20474;-59
2021/07/28 08:21:57;;;;;;;8.25;4.50;;;22.10;68.40;;;;;;4879535;29;20032;-59
2021/07/28 08:24:23;;;;;;;7.63;4.50;;;22.10;68.40;;;;;;4878687;29;20072;-59
2021/07/28 08:26:49;;;;;;;11.00;4.32;;;22.10;68.30;;;;;;4883451;29;20044;-58
2021/07/28 08:29:14;;;;;;;8.75;4.38;;;22.10;68.20;;;;;;4878831;29;20037;-58
2021/07/28 08:31:40;;;;;;;8.40;4.00;;;22.20;67.10;;;;;;4878127;29;20037;-58
2021/07/28 08:34:05;;;;;;;8.68;4.20;;;22.30;66.50;;;;;;4869841;29;20025;-59
2021/07/28 08:36:31;;;;;;;8.65;4.05;;;22.30;66.10;;;;;;4878342;29;20037;-60
2021/07/28 08:38:56;;;;;;;6.55;3.60;;;22.30;65.90;;;;;;4877783;29;20025;-58
2021/07/28 08:41:23;;;;;;;9.85;3.63;;;22.30;65.90;;;;;;4878884;29;20035;-58
2021/07/28 08:43:58;;;;;;;9.40;5.10;;;22.40;65.80;;;;;;4855910;29;20534;-58
2021/07/28 08:46:26;;;;;;;7.13;3.50;;;22.40;65.80;;;;;;4874395;29;20040;-59
2021/07/28 08:48:51;;;;;;;8.70;3.72;;;22.30;66.00;;;;;;4881774;29;20406;-58
2021/07/28 08:51:17;;;;;;;8.52;4.35;;;22.40;65.30;;;;;;4881951;29;20041;-60
2021/07/28 08:53:43;;;;;;;8.52;3.50;;;22.50;65.10;;;;;;4874144;29;20025;-58
2021/07/28 08:56:09;;;;;;;12.90;4.30;;;22.50;65.00;;;;;;4881848;29;20033;-58
2021/07/28 08:58:35;;;;;;;7.97;3.92;;;22.50;65.10;;;;;;4881868;29;20076;-59
2021/07/28 09:01:00;;;;;;;7.03;3.58;;;22.50;65.30;;;;;;4881844;29;20525;-59
2021/07/28 09:03:26;;;;;;;7.43;3.88;;;22.50;64.90;;;;;;4875408;29;20057;-59
2021/07/28 09:05:56;;;;;;;6.78;3.58;;;22.60;64.70;;;;;;4879455;29;20045;-58
2021/07/28 09:08:24;;;;;;;6.30;3.28;;;22.60;64.50;;;;;;4881900;29;20017;-59
2021/07/28 09:11:03;;;;;;;8.82;3.58;;;22.60;64.70;;;;;;4881800;29;20025;-58
2021/07/28 09:13:33;;;;;;;7.25;3.70;;;22.60;64.60;;;;;;4876529;29;20081;-60
2021/07/28 09:16:02;;;;;;;10.70;4.47;;;22.60;64.50;;;;;;4878870;29;20026;-60
2021/07/28 09:18:29;;;;;;;7.18;3.58;;;22.60;64.60;;;;;;4880481;29;20523;-60
2021/07/28 09:20:55;;;;;;;8.85;3.50;;;22.70;64.50;;;;;;4881524;29;20040;-60
2021/07/28 09:23:21;;;;;;;6.97;3.78;;;22.70;64.50;;;;;;4875473;29;20441;-60
2021/07/28 09:25:53;;;;;;;5.63;3.22;;;22.70;64.40;;;;;;4880679;29;20108;-59
2021/07/28 09:28:23;;;;;;;7.43;3.58;;;22.70;64.40;;;;;;4881144;29;20060;-59
2021/07/28 09:30:49;;;;;;;9.63;3.88;;;22.70;64.30;;;;;;4880876;29;20029;-59
2021/07/28 09:33:17;;;;;;;5.80;3.35;;;22.70;64.40;;;;;;4875351;29;20033;-58
2021/07/28 09:35:55;;;;;;;7.78;3.28;;;22.70;64.40;;;;;;4878221;29;20122;-61
2021/07/28 09:38:32;;;;;;;7.88;3.63;;;22.80;64.40;;;;;;4879592;29;20508;-59
2021/07/28 09:41:24;;;;;;;6.50;3.00;;;22.80;64.30;;;;;;4869572;29;20379;-58
2021/07/28 09:44:02;;;;;;;7.07;3.60;;;22.80;64.20;;;;;;4858908;29;20043;-58
2021/07/28 09:46:33;;;;;;;6.53;3.35;;;22.80;64.20;;;;;;4879685;29;20100;-58
2021/07/28 09:49:01;;;;;;;6.00;2.70;;;22.80;64.10;;;;;;4881449;29;20119;-58
2021/07/28 09:51:35;;;;;;;7.22;3.50;;;22.80;64.20;;;;;;4865650;29;20034;-58
2021/07/28 09:54:05;;;;;;;6.82;3.25;;;22.80;64.10;;;;;;4855660;29;20390;-59
2021/07/28 09:56:34;;;;;;;6.13;3.17;;;22.80;64.10;;;;;;4862716;29;20045;-61
2021/07/28 09:59:00;;;;;;;7.25;3.47;;;22.90;64.10;;;;;;4879113;29;20025;-60
2021/07/28 10:01:27;;;;;;;6.88;3.08;;;22.90;64.00;;;;;;4873727;29;20085;-60
2021/07/28 10:03:54;;;;;;;5.35;3.15;;;22.90;64.00;;;;;;4861579;29;20046;-60
2021/07/28 10:06:23;;;;;;;6.75;3.45;;;22.90;64.00;;;;;;4863732;29;20057;-59
2021/07/28 10:08:52;;;;;;;5.38;2.95;;;22.90;63.90;;;;;;4872615;29;20811;-60
2021/07/28 10:11:21;;;;;;;6.72;3.63;;;22.90;64.00;;;;;;4877449;29;20033;-60
2021/07/28 10:13:48;;;;;;;5.30;3.13;;;22.90;64.00;;;;;;4858988;29;20193;-60
2021/07/28 10:16:16;;;;;;;9.25;3.30;;;22.90;63.90;;;;;;4879080;29;20489;-60
2021/07/28 10:18:44;;;;;;;6.20;3.00;;;23.00;63.80;;;;;;4879076;29;20517;-59
2021/07/28 10:21:10;;;;;;;7.63;3.05;;;23.00;63.80;;;;;;4881500;29;20125;-59
2021/07/28 10:23:37;;;;;;;5.25;2.80;;;23.00;63.70;;;;;;4862771;29;20057;-59
2021/07/28 10:26:03;;;;;;;7.05;3.38;;;23.00;63.70;;;;;;4863255;29;20040;-58
2021/07/28 10:28:28;;;;;;;6.00;3.35;;;23.00;63.70;;;;;;4880560;29;20029;-58
2021/07/28 10:31:13;;;;;;;5.63;3.00;;;23.10;63.60;;;;;;4878755;29;20029;-60
2021/07/28 10:33:51;;;;;;;7.55;2.97;;;23.00;63.60;;;;;;4867846;29;20029;-59
2021/07/28 10:36:39;;;;;;;6.00;3.05;;;23.00;63.70;;;;;;4861722;29;20026;-58
2021/07/28 10:39:05;;;;;;;7.57;3.60;;;23.00;63.60;;;;;;4877187;29;20059;-59
2021/07/28 10:41:42;;;;;;;6.65;3.22;;;23.00;63.70;;;;;;4861662;29;20478;-60
2021/07/28 10:44:13;;;;;;;5.18;2.40;;;23.10;63.70;;;;;;4861152;29;20025;-60
2021/07/28 10:46:55;;;;;;;7.18;2.80;;;23.00;63.70;;;;;;4864620;29;20071;-60
2021/07/28 10:49:33;;;;;;;6.15;3.45;;;23.10;63.60;;;;;;4861398;29;20383;-60
2021/07/28 10:51:59;;;;;;;4.70;2.67;;;23.10;63.60;;;;;;4865162;29;20032;-60
2021/07/28 10:54:50;;;;;;;6.15;3.00;;;23.10;63.50;;;;;;4867866;29;20029;-60
2021/07/28 10:57:38;;;;;;;6.90;2.92;;;23.10;63.50;;;;;;4876504;29;20045;-59
2021/07/28 11:00:06;;;;;;;7.68;3.00;;;23.10;63.50;;;;;;4864844;29;20439;-59
2021/07/28 11:03:12;;;;;;;5.95;3.13;;;23.10;63.40;;;;;;4865324;29;20483;-60
2021/07/28 11:05:43;;;;;;;5.57;2.85;;;23.20;63.40;;;;;;4881740;29;20033;-59
2021/07/28 11:08:19;;;;;;;6.07;3.10;;;23.20;63.40;;;;;;4880179;29;20048;-59
2021/07/28 11:10:45;;;;;;;5.93;2.85;;;23.20;63.30;;;;;;4878721;29;20029;-60
2021/07/28 11:13:16;;;;;;;5.55;3.00;;;23.20;63.30;;;;;;4868863;29;20386;-60
2021/07/28 11:15:58;;;;;;;6.50;3.10;;;23.20;63.30;;;;;;4859664;29;20494;-60
2021/07/28 11:18:41;;;;;;;7.10;3.05;;;23.20;63.30;;;;;;4865522;29;20046;-60
2021/07/28 11:21:12;;;;;;;6.30;3.00;;;23.20;63.20;;;;;;4879231;29;20029;-59
2021/07/28 11:23:49;;;;;;;7.30;2.90;;;23.20;63.20;;;;;;4860611;29;20125;-59
2021/07/28 11:26:21;;;;;;;6.25;3.05;;;23.20;63.10;;;;;;4861724;29;20025;-60
2021/07/28 11:28:48;;;;;;;3.53;1.80;;;23.30;63.00;;;;;;4862163;29;20034;-60
2021/07/28 11:31:14;;;;;;;5.05;2.78;;;23.30;63.00;;;;;;4861200;29;20018;-60
2021/07/28 11:33:41;;;;;;;5.95;2.85;;;23.30;63.10;;;;;;4853080;29;20042;-60
2021/07/28 11:36:07;;;;;;;5.03;2.67;;;23.30;63.10;;;;;;4870812;29;20488;-59
2021/07/28 11:38:33;;;;;;;6.05;2.80;;;23.40;62.90;;;;;;4862100;29;20033;-59
2021/07/28 11:41:00;;;;;;;5.88;3.08;;;23.40;63.00;;;;;;4863336;29;20005;-59
2021/07/28 11:43:33;;;;;;;6.07;3.00;;;23.40;62.90;;;;;;4876266;29;20110;-59
2021/07/28 11:46:02;;;;;;;5.60;3.20;;;23.40;62.70;;;;;;4882385;29;20036;-61
2021/07/28 11:48:38;;;;;;;6.72;2.85;;;23.50;62.70;;;;;;4879478;29;20508;-61
2021/07/28 11:51:08;;;;;;;5.15;2.65;;;23.50;62.70;;;;;;4864872;29;20118;-60
2021/07/28 11:53:35;;;;;;;4.10;2.13;;;23.50;62.60;;;;;;4855844;29;20038;-60
2021/07/28 11:56:11;;;;;;;5.30;2.42;;;23.50;62.70;;;;;;4859097;29;20572;-60
2021/07/28 11:58:42;;;;;;;5.88;3.03;;;23.50;62.50;;;;;;4873829;29;20203;-60
2021/07/28 12:01:29;;;;;;;4.43;2.40;;;23.50;62.60;;;;;;4871810;29;20026;-59
2021/07/28 12:03:57;;;;;;;6.32;3.00;;;23.50;62.50;;;;;;4853181;29;20503;-59
2021/07/28 12:06:37;;;;;;;5.43;2.45;;;23.50;62.60;;;;;;4873528;29;20037;-59
2021/07/28 12:09:10;;;;;;;4.85;2.50;;;23.50;62.50;;;;;;4861525;29;20508;-61
2021/07/28 12:12:00;;;;;;;4.32;2.60;;;23.50;62.50;;;;;;4863306;29;20036;-59
2021/07/28 12:14:40;;;;;;;6.30;3.13;;;23.60;62.40;;;;;;4852218;29;20386;-59
2021/07/28 12:17:18;;;;;;;5.45;2.55;;;23.60;62.30;;;;;;4865597;29;20053;-60
2021/07/28 12:20:00;;;;;;;6.28;2.78;;;23.70;62.30;;;;;;4860030;29;20037;-60
2021/07/28 12:22:27;;;;;;;5.70;2.92;;;23.70;62.20;;;;;;4862657;29;20033;-60
2021/07/28 12:24:53;;;;;;;5.20;2.53;;;23.70;62.20;;;;;;4862163;29;20165;-60
2021/07/28 12:27:24;;;;;;;5.00;2.42;;;23.70;62.20;;;;;;4861111;29;20029;-60
2021/07/28 12:29:57;;;;;;;6.85;3.10;;;23.70;62.10;;;;;;4860851;29;20061;-60
2021/07/28 12:32:40;;;;;;;4.80;2.67;;;23.80;62.10;;;;;;4861296;29;20041;-60
2021/07/28 12:35:06;;;;;;;5.35;2.63;;;23.70;62.10;;;;;;4870607;29;20033;-60
2021/07/28 12:37:32;;;;;;;4.32;2.00;;;23.80;61.90;;;;;;4864349;29;20110;-60
2021/07/28 12:39:58;;;;;;;4.97;2.58;;;23.90;61.80;;;;;;4861314;29;20034;-59
2021/07/28 12:42:24;;;;;;;4.60;2.30;;;23.90;61.80;;;;;;4875906;29;20105;-60
2021/07/28 12:44:51;;;;;;;5.13;2.60;;;24.00;61.60;;;;;;4855480;29;20036;-60
2021/07/28 12:47:20;;;;;;;5.97;2.22;;;24.00;61.60;;;;;;4871358;29;20037;-60
2021/07/28 12:49:45;;;;;;;4.97;2.53;;;24.10;61.40;;;;;;4869030;29;20044;-60
2021/07/28 12:52:11;;;;;;;5.53;2.50;;;24.10;61.40;;;;;;4868152;29;20033;-59
2021/07/28 12:54:36;;;;;;;4.05;2.08;;;24.20;61.20;;;;;;4856114;29;20037;-59